Big Bear Station Historical Data
 
Daily Summary for April 19, 2018 Units:  English    Metric   Both
Next Day »
Daily Weekly Monthly Yearly Custom
  Current: High: Low: Average:
Temperature: 37.0 °F 43.0 °F 25.5 °F 32.7 °F
Dew Point: 28.8 °F 29.2 °F 8.6 °F 22.4 °F
Humidity: 72% 85% 36% 67%
Wind Speed: 6.3mph 10.4mph 0.0mph 3.5mph
Wind Gust: -999.0mph -999.0mph - -
WindNW - - SW
Pressure: 23.33 in 23.37 in 23.28 in -
Precipitation: 0.00 in      
Historical Graphs
 
 
Tabular Data for April 19, 2018
Time Temperature Dew Point Pressure Wind Wind Speed Wind Gust Humidity Rainfall Rate (Hourly)
00:00 30.7 °F 24.3 °F 23.37 in Calm   -999.0 mph 77% 0 in
00:15 30.0 °F 24.6 °F 23.36 in Calm   -999.0 mph 80% 0 in
00:30 29.3 °F 24.8 °F 23.36 in Calm   -999.0 mph 83% 0 in
00:47 28.9 °F 23.5 °F 23.36 in Calm   -999.0 mph 80% 0 in
01:02 29.3 °F 20.7 °F 23.35 in Calm   -999.0 mph 70% 0 in
01:18 29.1 °F 19.9 °F 23.35 in Calm   -999.0 mph 68% 0 in
01:33 28.8 °F 18.5 °F 23.34 in Calm   -999.0 mph 65% 0 in
01:48 28.6 °F 19.0 °F 23.33 in Calm   -999.0 mph 67% 0 in
02:04 28.9 °F 19.0 °F 23.32 in Calm   -999.0 mph 66% 0 in
02:20 29.3 °F 19.0 °F 23.32 in South 2.7 mph -999.0 mph 65% 0 in
02:36 29.5 °F 19.5 °F 23.32 in NNE 2.7 mph -999.0 mph 66% 0 in
02:51 29.7 °F 21.1 °F 23.31 in NNW 1.1 mph -999.0 mph 70% 0 in
03:07 29.3 °F 20.7 °F 23.30 in NNW 1.1 mph -999.0 mph 70% 0 in
03:22 28.9 °F 19.0 °F 23.30 in South 3.2 mph -999.0 mph 66% 0 in
03:37 28.8 °F 17.8 °F 23.29 in SE 1.1 mph -999.0 mph 63% 0 in
03:52 28.8 °F 16.7 °F 23.29 in Calm   -999.0 mph 60% 0 in
04:07 28.8 °F 14.7 °F 23.28 in Calm   -999.0 mph 55% 0 in
04:23 28.4 °F 14.3 °F 23.28 in WSW 2.7 mph -999.0 mph 55% 0 in
04:38 28.2 °F 14.5 °F 23.28 in West 4.2 mph -999.0 mph 56% 0 in
04:54 28.0 °F 12.2 °F 23.28 in SSE 3.2 mph -999.0 mph 51% 0 in
05:09 27.9 °F 9.8 °F 23.28 in SSE 2.7 mph -999.0 mph 46% 0 in
05:24 27.7 °F 8.6 °F 23.28 in Calm   -999.0 mph 44% 0 in
05:39 27.3 °F 14.5 °F 23.28 in South 4.2 mph -999.0 mph 58% 0 in
05:54 26.2 °F 20.6 °F 23.28 in NW 3.2 mph -999.0 mph 79% 0 in
06:10 26.6 °F 22.4 °F 23.29 in NW 4.2 mph -999.0 mph 84% 0 in
06:25 26.8 °F 22.0 °F 23.31 in West 1.7 mph -999.0 mph 82% 0 in
06:41 26.2 °F 21.7 °F 23.30 in Calm   -999.0 mph 83% 0 in
06:56 25.7 °F 21.3 °F 23.31 in Calm   -999.0 mph 83% 0 in
07:12 25.5 °F 21.3 °F 23.31 in NW 2.2 mph -999.0 mph 84% 0 in
07:27 26.1 °F 22.2 °F 23.30 in NE 2.7 mph -999.0 mph 85% 0 in
07:42 26.4 °F 22.5 °F 23.30 in West 2.7 mph -999.0 mph 85% 0 in
07:58 27.3 °F 21.0 °F 23.30 in NW 4.7 mph -999.0 mph 77% 0 in
08:13 28.0 °F 20.8 °F 23.31 in NNE 2.7 mph -999.0 mph 74% 0 in
08:29 28.6 °F 18.7 °F 23.30 in NNE 1.1 mph -999.0 mph 66% 0 in
08:45 29.7 °F 20.1 °F 23.31 in NW 3.2 mph -999.0 mph 67% 0 in
09:00 30.9 °F 22.6 °F 23.31 in WNW 6.3 mph -999.0 mph 71% 0 in
09:15 31.5 °F 24.8 °F 23.32 in WNW 5.8 mph -999.0 mph 76% 0 in
09:30 32.0 °F 26.2 °F 23.32 in NNW 3.2 mph -999.0 mph 79% 0 in
09:46 32.7 °F 26.6 °F 23.31 in WSW 3.7 mph -999.0 mph 78% 0 in
10:01 33.3 °F 26.9 °F 23.32 in NW 4.2 mph -999.0 mph 77% 0 in
10:16 33.1 °F 27.6 °F 23.32 in WNW 3.7 mph -999.0 mph 80% 0 in
10:32 33.4 °F 27.9 °F 23.33 in WNW 6.3 mph -999.0 mph 80% 0 in
10:47 36.0 °F 29.2 °F 23.33 in NW 5.8 mph -999.0 mph 76% 0 in
11:03 37.8 °F 25.6 °F 23.33 in NE 6.3 mph -999.0 mph 61% 0 in
11:18 39.2 °F 23.9 °F 23.32 in NW 10.4 mph -999.0 mph 54% 0 in
11:33 39.7 °F 22.6 °F 23.32 in NW 7.3 mph -999.0 mph 50% 0 in
11:49 41.0 °F 20.7 °F 23.32 in NNE 3.7 mph -999.0 mph 44% 0 in
12:04 41.4 °F 16.4 °F 23.32 in NW 8.9 mph -999.0 mph 36% 0 in
12:21 42.8 °F 23.4 °F 23.32 in West 8.3 mph -999.0 mph 46% 0 in
12:36 42.8 °F 26.8 °F 23.32 in WNW 7.8 mph -999.0 mph 53% 0 in
12:52 42.1 °F 28.8 °F 23.33 in NNE 8.3 mph -999.0 mph 59% 0 in
13:07 40.6 °F 29.0 °F 23.33 in NNW 7.3 mph -999.0 mph 63% 0 in
13:22 43.0 °F 28.4 °F 23.34 in North 5.8 mph -999.0 mph 56% 0 in
13:37 40.3 °F 27.9 °F 23.35 in NNW 4.7 mph -999.0 mph 61% 0 in
13:53 40.8 °F 28.0 °F 23.34 in NW 1.7 mph -999.0 mph 60% 0 in
14:08 42.4 °F 29.1 °F 23.34 in NW 8.3 mph -999.0 mph 59% 0 in
14:23 42.3 °F 29.0 °F 23.34 in NW 5.3 mph -999.0 mph 59% 0 in
14:39 40.5 °F 28.9 °F 23.34 in NNE 5.3 mph -999.0 mph 63% 0 in
14:54 40.3 °F 29.1 °F 23.34 in NW 4.7 mph -999.0 mph 64% 0 in
15:09 38.3 °F 27.2 °F 23.34 in NW 7.3 mph -999.0 mph 64% 0 in
15:24 39.2 °F 27.3 °F 23.34 in NE 2.2 mph -999.0 mph 62% 0 in
15:39 38.1 °F 26.6 °F 23.33 in NE 3.7 mph -999.0 mph 63% 0 in
15:55 37.0 °F 28.8 °F 23.33 in NW 6.3 mph -999.0 mph 72% 0 in
Big Bear CA Weather